Price, UT (84501)

1:29 AM MDT on September 03, 2014 (GMT -0600)
Carbon County | Change Station
CLOSE
Current Station
Airport
Location: Price,
Elevation: 5955 ft
Nearby Weather Stations

Elev 5955 ft 39.61 °N, 110.75 °W | Updated 36 minutes ago

Clear
Clear
67 °F
Feels Like 67 °F
N
5
Wind Variable Wind from North

Today
High -- | Low -- °F
--% Chance of Precip.
Yesterday
High -- | Low -- °F
Precip. -- in
6:54 AM 7:51 PM
First Quarter, 59% visible
Pressure 29.70 in
Visibility 10.0 miles
Clouds Clear
Dew Point 34 °F
Humidity 30%
Rainfall 0.00 in
Snow Depth Not available.
UV 0 out of 12
Pollen 8.40 out of 12
Air Quality Not available.
Flu Activity Not available.
METAR KPUC 030653Z AUTO 36004KT 10SM CLR 19/01 A2997 RMK AO2 SLP057 T01940011 403110111

More Conditions Fewer Conditions

Pressure 29.70 in
Visibility 10.0 miles
Clouds Clear
Dew Point 34 °F
Humidity 30%
Rainfall 0.00 in
Snow Depth Not available.
UV 0 out of 12
Pollen 8.40 out of 12
Air Quality Not available.
Flu Activity Not available.
METAR KPUC 030653Z AUTO 36004KT 10SM CLR 19/01 A2997 RMK AO2 SLP057 T01940011 403110111

More Conditions Fewer Conditions

10-Day Weather Forecast

Almanac

Astronomy

Sep. 03, 2014 Rise Set
Actual Time 6:54 AM MDT 7:51 PM MDT
Civil Twilight 6:26 AM MDT 8:18 PM MDT
Nautical Twilight 5:54 AM MDT 8:51 PM MDT
Astronomical Twilight 5:20 AM MDT 9:24 PM MDT
Moon 3:35 PM MDT 12:52 AM MDT
Length of Visible Light 13h 51m
Length of Day
12h 57m
Tomorrow will be 2m 29s shorter.
First Quarter, 59% of the Moon is Illuminated
Today
First Quarter
Sep 8
Full
Sep 15
Last Quarter
Sep 24
New
Oct 1
First Quarter

Today's Extremes

State Highs State Lows

Community

WunderPhotos

Upload Photos

1,749,891 photos uploaded!

Nearby

Snow Depth

Station Depth Elevation
Buck Flat 0 in 9800 ft
Gooseberry R.S. 0 in 7920 ft
Black Flat-U.M. Creek 0 in 9400 ft
Cascade Mountain 0 in 7768 ft
Box Creek 0 in 9800 ft

Earthquake Activity

City Distance Mag. Time & Date
No recent earthquake activity has been reported nearby.
Minimum magnitude displayed is 2.5.

Coastal Water Temperatures

Place Temperature
No Stations Reporting

Nearby Weather Stations